createdAt,value
2023-01-22T00:01:34.295Z,49.40
2023-01-22T00:04:01.627Z,52.42
2023-01-22T00:06:32.846Z,54.03
2023-01-22T00:09:04.126Z,60.08
2023-01-22T00:11:31.439Z,53.05
2023-01-22T00:16:31.109Z,48.67
2023-01-22T00:18:59.524Z,46.08
2023-01-22T00:21:27.789Z,53.55
2023-01-22T00:23:54.894Z,49.08
2023-01-22T00:26:24.230Z,46.95
2023-01-22T00:29:00.152Z,45.80
2023-01-22T00:31:27.302Z,48.15
2023-01-22T00:33:55.180Z,49.42
2023-01-22T00:39:07.557Z,45.72
2023-01-22T00:41:34.802Z,43.63
2023-01-22T00:44:02.044Z,45.70
2023-01-22T00:46:31.440Z,42.63
2023-01-22T00:49:00.297Z,45.17
2023-01-22T00:51:30.746Z,44.90
2023-01-22T00:53:57.961Z,46.38
2023-01-22T00:56:25.088Z,45.42
2023-01-22T01:01:27.119Z,49.63
2023-01-22T01:03:54.361Z,48.03
2023-01-22T01:06:25.148Z,50.00
2023-01-22T01:11:31.782Z,45.22
2023-01-22T01:14:00.347Z,51.08
2023-01-22T01:19:17.514Z,46.58
2023-01-22T01:21:46.166Z,53.08
2023-01-22T01:24:14.683Z,51.60
2023-01-22T01:26:42.455Z,51.85
2023-01-22T01:29:11.207Z,46.85
2023-01-22T01:37:15.384Z,47.45
2023-01-22T01:39:43.961Z,56.05
2023-01-22T01:42:11.161Z,49.50
2023-01-22T01:44:38.443Z,50.20
2023-01-22T01:47:08.261Z,45.20
2023-01-22T01:55:08.969Z,40.97
2023-01-22T01:57:36.881Z,37.58
2023-01-22T02:00:10.349Z,44.70
2023-01-22T02:02:37.898Z,39.50
2023-01-22T02:05:05.680Z,46.38
2023-01-22T02:10:16.896Z,40.00
2023-01-22T02:12:44.332Z,42.28
2023-01-22T02:15:13.328Z,51.67
2023-01-22T02:17:40.566Z,44.15
2023-01-22T02:20:07.885Z,42.42
2023-01-22T02:25:11.039Z,44.55
2023-01-22T02:27:38.701Z,52.22
2023-01-22T02:30:08.042Z,44.35
2023-01-22T02:32:36.344Z,45.85
2023-01-22T02:35:03.851Z,46.05
2023-01-22T02:40:05.855Z,43.22
2023-01-22T02:42:32.989Z,42.45
2023-01-22T02:45:00.896Z,40.60
2023-01-22T02:47:28.230Z,45.40
2023-01-22T02:49:55.556Z,43.45
2023-01-22T02:52:29.799Z,46.33
2023-01-22T02:54:57.412Z,40.75
2023-01-22T02:57:24.619Z,41.17
2023-01-22T02:59:51.942Z,42.95
2023-01-22T03:02:19.117Z,46.00
2023-01-22T03:07:46.467Z,49.20
2023-01-22T03:21:58.651Z,41.60
2023-01-22T03:24:26.181Z,46.72
2023-01-22T03:26:54.063Z,43.33
2023-01-22T03:29:21.342Z,40.92
2023-01-22T03:31:48.784Z,40.08
2023-01-22T03:39:24.261Z,45.83
2023-01-22T03:41:54.009Z,44.55
2023-01-22T03:44:21.450Z,41.17
2023-01-22T03:46:50.103Z,41.42
2023-01-22T03:51:53.291Z,39.83
2023-01-22T03:54:26.115Z,38.50
2023-01-22T03:56:53.282Z,40.10
2023-01-22T03:59:21.498Z,40.10
2023-01-22T04:01:50.847Z,38.28
2023-01-22T04:06:50.335Z,40.38
2023-01-22T04:09:19.827Z,42.42
2023-01-22T04:11:49.312Z,41.47
2023-01-22T04:14:16.609Z,40.15
2023-01-22T04:16:45.386Z,42.53
2023-01-22T04:24:42.060Z,38.05
2023-01-22T04:27:16.950Z,35.53
2023-01-22T04:29:45.655Z,42.35
2023-01-22T04:32:13.941Z,38.75
2023-01-22T04:34:44.628Z,38.63
2023-01-22T04:39:39.163Z,35.33
2023-01-22T04:42:06.857Z,35.03
2023-01-22T04:44:34.123Z,34.60
2023-01-22T04:47:04.689Z,40.30
2023-01-22T04:49:31.853Z,32.25
2023-01-22T04:52:07.053Z,41.15
2023-01-22T04:54:34.169Z,33.72
2023-01-22T04:57:01.650Z,34.53
2023-01-22T04:59:28.785Z,39.40
2023-01-22T05:01:55.926Z,41.17
2023-01-22T05:04:23.893Z,35.63
2023-01-22T05:09:36.640Z,40.03
2023-01-22T05:12:03.879Z,33.15
2023-01-22T05:14:33.266Z,36.55
2023-01-22T05:17:00.358Z,39.45
2023-01-22T05:19:35.523Z,35.92
2023-01-22T05:22:04.032Z,37.08
2023-01-22T05:24:31.469Z,42.47
2023-01-22T05:26:59.485Z,37.63
2023-01-22T05:29:27.220Z,34.67
2023-01-22T05:31:56.116Z,34.10
2023-01-22T05:34:24.628Z,32.08
2023-01-22T05:45:28.664Z,33.10
2023-01-22T05:47:59.035Z,31.60
2023-01-22T05:50:36.176Z,32.95
2023-01-22T05:53:04.170Z,33.70
2023-01-22T05:55:36.517Z,31.95
2023-01-22T05:58:06.346Z,36.45
2023-01-22T06:06:15.505Z,31.30
2023-01-22T06:11:34.851Z,32.15
2023-01-22T06:14:03.116Z,32.80
2023-01-22T06:16:34.015Z,30.33
2023-01-22T06:19:03.363Z,33.53
2023-01-22T06:24:22.469Z,32.58
2023-01-22T06:26:49.971Z,32.45
2023-01-22T06:29:18.802Z,34.05
2023-01-22T06:31:46.907Z,33.17
2023-01-22T06:34:25.374Z,35.72
2023-01-22T06:36:55.791Z,34.03
2023-01-22T06:45:08.179Z,36.00
2023-01-22T06:53:09.423Z,33.42
2023-01-22T07:01:04.288Z,33.47
2023-01-22T07:06:10.680Z,37.83
2023-01-22T07:11:19.576Z,32.25
2023-01-22T07:13:49.884Z,32.40
2023-01-22T07:18:59.803Z,32.53
2023-01-22T07:41:25.263Z,31.33
2023-01-22T07:46:40.373Z,31.08
2023-01-22T07:49:11.859Z,28.00
2023-01-22T09:11:15.579Z,29.60
2023-01-22T09:19:14.277Z,29.15
2023-01-22T09:33:16.344Z,27.33
2023-01-22T09:44:11.428Z,24.95
2023-01-22T09:46:42.005Z,22.98
2023-01-22T09:49:29.381Z,27.58
2023-01-22T09:51:59.591Z,23.83
2023-01-22T09:54:27.505Z,28.30
2023-01-22T09:56:56.570Z,23.15
2023-01-22T09:59:25.756Z,25.60
2023-01-22T10:01:57.493Z,26.75
2023-01-22T10:04:34.324Z,22.48
2023-01-22T10:07:05.393Z,23.90
2023-01-22T10:09:33.755Z,23.67
2023-01-22T10:12:02.659Z,19.52
2023-01-22T10:14:30.826Z,20.13
2023-01-22T10:17:00.654Z,22.13
2023-01-22T10:22:21.646Z,22.23
2023-01-22T10:24:48.863Z,21.75
2023-01-22T10:52:02.174Z,24.42
2023-01-22T10:59:54.464Z,25.90
2023-01-22T11:02:25.116Z,25.50
2023-01-22T11:27:02.523Z,17.38
2023-01-22T11:55:15.645Z,16.83
2023-01-22T12:06:43.467Z,17.40
2023-01-22T12:17:49.581Z,16.20
2023-01-22T12:20:24.655Z,17.75
2023-01-22T12:22:58.771Z,19.10
2023-01-22T12:28:53.436Z,24.98
2023-01-22T12:31:24.615Z,22.63
2023-01-22T12:33:52.100Z,22.95
2023-01-22T12:36:21.542Z,23.23
2023-01-22T12:39:03.329Z,23.80
2023-01-22T12:41:36.454Z,21.95
2023-01-22T12:49:53.758Z,23.95
2023-01-22T12:52:35.507Z,24.13
2023-01-22T12:55:03.650Z,21.98
2023-01-22T12:57:39.030Z,25.45
2023-01-22T13:00:31.598Z,27.17
2023-01-22T13:02:59.068Z,28.20
2023-01-22T13:05:34.164Z,25.33
2023-01-22T13:08:06.814Z,26.35
2023-01-22T13:10:35.082Z,27.00
2023-01-22T13:13:02.096Z,27.10
2023-01-22T13:15:31.602Z,33.70
2023-01-22T13:18:08.273Z,32.95
2023-01-22T13:20:37.673Z,29.45
2023-01-22T13:23:06.340Z,28.73
2023-01-22T13:25:34.196Z,31.08
2023-01-22T13:28:03.078Z,28.05
2023-01-22T13:30:30.977Z,26.48
2023-01-22T13:33:13.729Z,30.02
2023-01-22T13:35:47.385Z,25.75
2023-01-22T13:38:28.615Z,27.75
2023-01-22T13:41:08.846Z,23.77
2023-01-22T13:43:37.346Z,21.95
2023-01-22T13:46:05.603Z,14.88
2023-01-22T13:48:32.772Z,14.38
2023-01-22T13:51:02.785Z,13.75
2023-01-22T13:53:36.047Z,15.25
2023-01-22T13:58:48.277Z,11.93
2023-01-22T14:01:31.939Z,12.23
2023-01-22T14:04:00.435Z,14.25
2023-01-22T14:06:27.663Z,11.77
2023-01-22T14:08:55.543Z,12.73
2023-01-22T14:11:22.942Z,11.50
2023-01-22T14:16:40.471Z,11.48
2023-01-22T14:19:07.677Z,11.38
2023-01-22T14:21:35.357Z,13.80
2023-01-22T14:24:02.361Z,12.15
2023-01-22T14:26:29.447Z,13.18
2023-01-22T14:31:29.050Z,12.88
2023-01-22T14:33:58.389Z,13.73
2023-01-22T14:36:25.536Z,12.57
2023-01-22T14:38:53.577Z,13.15
2023-01-22T14:41:20.688Z,12.63
2023-01-22T14:46:23.550Z,12.30
2023-01-22T14:48:50.618Z,12.00
2023-01-22T14:51:17.744Z,13.75
2023-01-22T14:53:45.000Z,15.05
2023-01-22T14:56:12.191Z,10.57
2023-01-22T15:01:27.827Z,13.70
2023-01-22T15:03:54.925Z,15.70
2023-01-22T15:06:22.565Z,14.75
2023-01-22T15:08:49.587Z,12.05
2023-01-22T15:11:17.842Z,12.75
2023-01-22T15:13:51.173Z,16.50
2023-01-22T15:16:18.234Z,12.55
2023-01-22T15:18:45.247Z,14.02
2023-01-22T15:21:12.410Z,13.45
2023-01-22T15:23:39.464Z,14.02
2023-01-22T15:26:09.389Z,14.23
2023-01-22T15:31:20.396Z,14.13
2023-01-22T15:33:48.659Z,14.48
2023-01-22T15:36:15.814Z,13.05
2023-01-22T15:38:42.877Z,13.35
2023-01-22T15:41:23.565Z,14.82
2023-01-22T15:43:51.406Z,12.45
2023-01-22T15:49:12.265Z,11.75
2023-01-22T15:51:40.212Z,13.38
2023-01-22T15:54:10.674Z,16.20
2023-01-22T15:56:38.756Z,17.92
2023-01-22T15:59:05.831Z,14.05
2023-01-22T16:01:41.251Z,16.98
2023-01-22T16:04:09.642Z,16.30
2023-01-22T16:06:39.714Z,14.98
2023-01-22T16:09:07.648Z,14.82
2023-01-22T16:11:35.257Z,14.25
2023-01-22T16:14:04.850Z,16.98
2023-01-22T16:16:38.206Z,15.87
2023-01-22T16:19:06.541Z,15.30
2023-01-22T16:21:33.613Z,17.63
2023-01-22T16:24:01.479Z,16.48
2023-01-22T16:26:30.040Z,17.60
2023-01-22T16:28:58.143Z,17.75
2023-01-22T16:36:33.378Z,18.13
2023-01-22T16:39:00.744Z,19.48
2023-01-22T16:41:34.909Z,19.00
2023-01-22T16:44:06.204Z,19.88
2023-01-22T16:46:33.844Z,16.25
2023-01-22T16:49:02.278Z,16.92
2023-01-22T16:51:34.691Z,21.25
2023-01-22T16:54:01.741Z,16.85
2023-01-22T16:56:28.788Z,16.13
2023-01-22T16:58:55.879Z,18.17
2023-01-22T17:03:54.191Z,18.85
2023-01-22T17:06:23.540Z,20.25
2023-01-22T17:08:51.514Z,22.02
2023-01-22T17:11:19.094Z,22.10
2023-01-22T17:13:46.184Z,19.77
2023-01-22T17:21:55.260Z,19.23
2023-01-22T17:24:22.510Z,18.83
2023-01-22T17:26:52.595Z,19.08
2023-01-22T17:29:20.295Z,22.63
2023-01-22T17:31:48.587Z,19.92
2023-01-22T17:34:16.032Z,19.58
2023-01-22T17:36:43.247Z,21.38
2023-01-22T17:39:14.418Z,20.20
2023-01-22T17:41:41.502Z,18.45
2023-01-22T17:44:08.599Z,21.73
2023-01-22T17:46:35.975Z,20.60
2023-01-22T17:51:41.271Z,21.17
2023-01-22T17:54:10.862Z,20.50
2023-01-22T17:56:43.038Z,21.63
2023-01-22T17:59:11.438Z,20.13
2023-01-22T18:01:41.623Z,24.13
2023-01-22T18:04:15.041Z,21.42
2023-01-22T18:06:43.215Z,19.17
2023-01-22T18:09:11.389Z,20.95
2023-01-22T18:11:38.821Z,23.85
2023-01-22T18:14:07.267Z,23.92
2023-01-22T18:16:36.723Z,21.63
2023-01-22T18:21:36.177Z,26.05
2023-01-22T18:24:05.546Z,23.70
2023-01-22T18:26:34.386Z,23.95
2023-01-22T18:29:01.507Z,24.55
2023-01-22T18:31:32.042Z,23.15
2023-01-22T18:34:07.039Z,27.23
2023-01-22T18:36:35.245Z,23.73
2023-01-22T18:39:04.839Z,22.30
2023-01-22T18:41:32.982Z,24.10
2023-01-22T18:44:00.881Z,24.88
2023-01-22T18:46:29.639Z,23.52
2023-01-22T18:49:04.243Z,21.10
2023-01-22T18:51:32.277Z,23.52
2023-01-22T18:54:00.604Z,27.60
2023-01-22T18:56:29.080Z,20.35
2023-01-22T18:58:59.317Z,23.85
2023-01-22T19:01:28.612Z,25.88
2023-01-22T19:06:28.325Z,23.10
2023-01-22T19:09:02.428Z,28.05
2023-01-22T19:11:33.220Z,24.45
2023-01-22T19:16:27.693Z,22.85
2023-01-22T19:24:28.886Z,25.58
2023-01-22T19:26:56.383Z,27.98
2023-01-22T19:29:25.192Z,30.25
2023-01-22T19:31:53.867Z,25.10
2023-01-22T19:34:30.340Z,24.83
2023-01-22T19:37:02.997Z,25.80
2023-01-22T19:39:30.518Z,26.65
2023-01-22T19:42:01.642Z,27.65
2023-01-22T19:44:42.868Z,31.08
2023-01-22T19:47:12.262Z,28.65
2023-01-22T19:49:39.410Z,30.35
2023-01-22T19:52:06.406Z,27.40
2023-01-22T19:57:19.584Z,28.55
2023-01-22T19:59:48.029Z,29.38
2023-01-22T20:02:15.439Z,26.73
2023-01-22T20:04:42.534Z,26.05
2023-01-22T20:07:09.584Z,27.10
2023-01-22T20:15:10.467Z,26.25
2023-01-22T20:17:38.630Z,28.63
2023-01-22T20:20:12.418Z,23.48
2023-01-22T20:22:39.572Z,26.13
2023-01-22T20:25:08.014Z,27.02
2023-01-22T20:33:02.912Z,28.67
2023-01-22T20:35:31.974Z,27.55
2023-01-22T20:37:59.154Z,26.83
2023-01-22T20:40:26.757Z,28.55
2023-01-22T20:42:53.825Z,27.85
2023-01-22T20:48:13.405Z,26.77
2023-01-22T20:50:43.551Z,28.33
2023-01-22T20:53:10.585Z,26.85
2023-01-22T20:55:37.758Z,27.67
2023-01-22T20:58:04.956Z,33.47
2023-01-22T21:00:32.893Z,30.73
2023-01-22T21:03:00.060Z,29.35
2023-01-22T21:05:27.289Z,29.45
2023-01-22T21:07:54.397Z,32.97
2023-01-22T21:10:21.646Z,37.25
2023-01-22T21:12:48.789Z,33.05
2023-01-22T21:18:01.678Z,32.03
2023-01-22T21:20:29.146Z,35.45
2023-01-22T21:22:56.516Z,30.17
2023-01-22T21:25:23.577Z,31.50
2023-01-22T21:27:51.245Z,30.80
2023-01-22T21:33:00.257Z,30.48
2023-01-22T21:35:27.303Z,28.25
2023-01-22T21:37:56.573Z,29.98
2023-01-22T21:40:23.913Z,33.03
2023-01-22T21:43:09.920Z,30.55
2023-01-22T21:46:00.636Z,29.85
2023-01-22T21:48:30.812Z,30.48
2023-01-22T21:50:57.905Z,29.33
2023-01-22T21:53:25.129Z,30.40
2023-01-22T21:55:57.425Z,32.65
2023-01-22T21:58:24.403Z,34.13
2023-01-22T22:00:51.494Z,32.08
2023-01-22T22:03:18.612Z,30.25
2023-01-22T22:05:57.287Z,31.52
2023-01-22T22:08:24.313Z,33.92
2023-01-22T22:10:51.765Z,29.58
2023-01-22T22:13:19.430Z,29.73
2023-01-22T22:15:46.842Z,28.02
2023-01-22T22:18:13.888Z,31.80
2023-01-22T22:20:41.046Z,31.00
2023-01-22T22:23:08.233Z,29.33
2023-01-22T22:25:35.628Z,30.20
2023-01-22T22:28:02.622Z,33.33
2023-01-22T22:30:29.716Z,30.88
2023-01-22T22:33:04.112Z,29.92
2023-01-22T22:35:31.426Z,33.80
2023-01-22T22:37:58.497Z,35.78
2023-01-22T22:40:25.561Z,34.75
2023-01-22T22:42:52.544Z,36.08
2023-01-22T22:45:19.595Z,41.58
2023-01-22T22:47:46.601Z,37.85
2023-01-22T22:50:13.646Z,35.97
2023-01-22T22:52:43.071Z,41.53
2023-01-22T22:55:10.290Z,41.38
2023-01-22T22:57:37.329Z,38.45
2023-01-22T23:00:10.751Z,39.28
2023-01-22T23:02:37.763Z,41.65
2023-01-22T23:05:04.966Z,40.70
2023-01-22T23:07:32.082Z,38.20
2023-01-22T23:10:00.246Z,39.42
2023-01-22T23:12:28.084Z,41.45
2023-01-22T23:17:39.275Z,39.25
2023-01-22T23:20:08.858Z,36.65
2023-01-22T23:22:35.932Z,34.75
2023-01-22T23:25:02.942Z,31.92
2023-01-22T23:27:30.045Z,31.83
2023-01-22T23:35:35.808Z,34.53
2023-01-22T23:38:05.067Z,38.58
2023-01-22T23:40:34.123Z,31.83
2023-01-22T23:43:01.720Z,35.55
2023-01-22T23:45:28.961Z,35.42
2023-01-22T23:47:59.715Z,36.83
2023-01-22T23:52:54.954Z,35.90
2023-01-22T23:55:21.970Z,35.35
2023-01-22T23:57:48.987Z,35.38
